sensor_id;sensor_type;location;lat;lon;timestamp;pressure;altitude;pressure_sealevel;temperature;humidity
21290;BME280;10804;48.988;2.408;2023-02-12T00:00:11;103052.97;;;9.68;65.85
21290;BME280;10804;48.988;2.408;2023-02-12T00:02:44;103048.63;;;9.67;65.44
21290;BME280;10804;48.988;2.408;2023-02-12T00:05:12;103046.03;;;9.67;65.74
21290;BME280;10804;48.988;2.408;2023-02-12T00:07:41;103051.22;;;9.67;65.46
21290;BME280;10804;48.988;2.408;2023-02-12T00:10:09;103049.50;;;9.66;65.90
21290;BME280;10804;48.988;2.408;2023-02-12T00:12:37;103042.56;;;9.66;65.88
21290;BME280;10804;48.988;2.408;2023-02-12T00:15:05;103039.06;;;9.66;65.56
21290;BME280;10804;48.988;2.408;2023-02-12T00:17:32;103037.31;;;9.65;65.91
21290;BME280;10804;48.988;2.408;2023-02-12T00:20:01;103032.09;;;9.65;65.83
21290;BME280;10804;48.988;2.408;2023-02-12T00:22:28;103037.31;;;9.65;65.57
21290;BME280;10804;48.988;2.408;2023-02-12T00:24:56;103040.78;;;9.64;65.37
21290;BME280;10804;48.988;2.408;2023-02-12T00:27:23;103036.44;;;9.64;65.67
21290;BME280;10804;48.988;2.408;2023-02-12T00:29:51;103031.22;;;9.63;66.02
21290;BME280;10804;48.988;2.408;2023-02-12T00:32:18;103035.53;;;9.62;66.00
21290;BME280;10804;48.988;2.408;2023-02-12T00:34:45;103033.81;;;9.63;65.88
21290;BME280;10804;48.988;2.408;2023-02-12T00:37:16;103037.28;;;9.62;66.00
21290;BME280;10804;48.988;2.408;2023-02-12T00:39:44;103032.06;;;9.62;65.86
21290;BME280;10804;48.988;2.408;2023-02-12T00:42:11;103035.50;;;9.61;65.86
21290;BME280;10804;48.988;2.408;2023-02-12T00:44:38;103032.91;;;9.61;65.54
21290;BME280;10804;48.988;2.408;2023-02-12T00:47:06;103035.50;;;9.61;65.97
21290;BME280;10804;48.988;2.408;2023-02-12T00:49:33;103038.09;;;9.59;65.87
21290;BME280;10804;48.988;2.408;2023-02-12T00:52:03;103044.19;;;9.60;65.98
21290;BME280;10804;48.988;2.408;2023-02-12T00:54:32;103033.75;;;9.60;65.58
21290;BME280;10804;48.988;2.408;2023-02-12T00:56:59;103042.44;;;9.59;65.88
21290;BME280;10804;48.988;2.408;2023-02-12T00:59:29;103044.16;;;9.57;65.58
21290;BME280;10804;48.988;2.408;2023-02-12T01:01:57;103035.44;;;9.56;65.77
21290;BME280;10804;48.988;2.408;2023-02-12T01:04:24;103043.31;;;9.59;65.70
21290;BME280;10804;48.988;2.408;2023-02-12T01:06:51;103044.16;;;9.57;65.81
21290;BME280;10804;48.988;2.408;2023-02-12T01:09:18;103042.44;;;9.59;66.01
21290;BME280;10804;48.988;2.408;2023-02-12T01:11:48;103045.91;;;9.58;65.62
21290;BME280;10804;48.988;2.408;2023-02-12T01:14:16;103037.19;;;9.57;65.99
21290;BME280;10804;48.988;2.408;2023-02-12T01:16:43;103042.41;;;9.57;65.36
21290;BME280;10804;48.988;2.408;2023-02-12T01:19:11;103036.31;;;9.57;66.12
21290;BME280;10804;48.988;2.408;2023-02-12T01:21:38;103033.66;;;9.54;65.60
21290;BME280;10804;48.988;2.408;2023-02-12T01:24:06;103039.78;;;9.56;65.72
21290;BME280;10804;48.988;2.408;2023-02-12T01:26:33;103037.19;;;9.56;65.53
21290;BME280;10804;48.988;2.408;2023-02-12T01:29:04;103031.97;;;9.56;65.46
21290;BME280;10804;48.988;2.408;2023-02-12T01:31:34;103028.47;;;9.55;66.08
21290;BME280;10804;48.988;2.408;2023-02-12T01:34:03;103025.88;;;9.55;65.71
21290;BME280;10804;48.988;2.408;2023-02-12T01:36:33;103027.59;;;9.53;65.88
21290;BME280;10804;48.988;2.408;2023-02-12T01:39:00;103034.56;;;9.54;65.94
21290;BME280;10804;48.988;2.408;2023-02-12T01:41:31;103020.59;;;9.51;65.58
21290;BME280;10804;48.988;2.408;2023-02-12T01:44:13;103030.22;;;9.55;65.77
21290;BME280;10804;48.988;2.408;2023-02-12T01:46:42;103029.34;;;9.54;65.77
21290;BME280;10804;48.988;2.408;2023-02-12T01:49:14;103012.81;;;9.54;65.66
21290;BME280;10804;48.988;2.408;2023-02-12T01:51:43;103015.44;;;9.52;65.44
21290;BME280;10804;48.988;2.408;2023-02-12T01:54:14;103018.03;;;9.54;66.00
21290;BME280;10804;48.988;2.408;2023-02-12T01:56:43;103016.28;;;9.53;65.97
21290;BME280;10804;48.988;2.408;2023-02-12T01:59:12;103014.53;;;9.52;65.88
21290;BME280;10804;48.988;2.408;2023-02-12T02:01:39;103011.97;;;9.53;65.90
21290;BME280;10804;48.988;2.408;2023-02-12T02:04:10;103011.06;;;9.53;65.78
21290;BME280;10804;48.988;2.408;2023-02-12T02:06:47;103012.78;;;9.51;66.03
21290;BME280;10804;48.988;2.408;2023-02-12T02:09:17;103009.31;;;9.52;65.62
21290;BME280;10804;48.988;2.408;2023-02-12T02:11:45;103004.97;;;9.51;65.77
21290;BME280;10804;48.988;2.408;2023-02-12T02:14:32;103007.56;;;9.51;65.62
21290;BME280;10804;48.988;2.408;2023-02-12T02:17:12;103002.38;;;9.51;65.71
21290;BME280;10804;48.988;2.408;2023-02-12T02:19:54;103003.22;;;9.50;65.91
21290;BME280;10804;48.988;2.408;2023-02-12T02:22:33;103006.72;;;9.50;65.61
21290;BME280;10804;48.988;2.408;2023-02-12T02:25:35;103000.63;;;9.50;65.52
21290;BME280;10804;48.988;2.408;2023-02-12T02:28:31;103008.44;;;9.50;65.94
21290;BME280;10804;48.988;2.408;2023-02-12T02:31:05;103004.13;;;9.50;65.92
21290;BME280;10804;48.988;2.408;2023-02-12T02:33:42;103003.19;;;9.48;65.51
21290;BME280;10804;48.988;2.408;2023-02-12T02:36:20;102999.72;;;9.48;65.99
21290;BME280;10804;48.988;2.408;2023-02-12T02:38:54;102998.88;;;9.49;65.95
21290;BME280;10804;48.988;2.408;2023-02-12T02:41:28;102998.88;;;9.49;66.22
21290;BME280;10804;48.988;2.408;2023-02-12T02:43:58;102997.13;;;9.48;65.66
21290;BME280;10804;48.988;2.408;2023-02-12T02:46:33;102997.13;;;9.48;66.00
21290;BME280;10804;48.988;2.408;2023-02-12T02:49:05;102996.22;;;9.47;65.89
21290;BME280;10804;48.988;2.408;2023-02-12T02:51:36;102996.28;;;9.49;66.20
21290;BME280;10804;48.988;2.408;2023-02-12T02:54:08;102991.03;;;9.47;65.83
21290;BME280;10804;48.988;2.408;2023-02-12T02:56:41;103001.44;;;9.47;65.86
21290;BME280;10804;48.988;2.408;2023-02-12T02:59:13;102996.22;;;9.47;66.11
21290;BME280;10804;48.988;2.408;2023-02-12T03:01:49;102995.38;;;9.47;65.92
21290;BME280;10804;48.988;2.408;2023-02-12T03:04:21;102997.97;;;9.47;65.94
21290;BME280;10804;48.988;2.408;2023-02-12T03:07:04;102990.16;;;9.47;66.20
21290;BME280;10804;48.988;2.408;2023-02-12T03:09:37;102986.69;;;9.46;65.88
21290;BME280;10804;48.988;2.408;2023-02-12T03:12:08;102990.09;;;9.44;65.77
21290;BME280;10804;48.988;2.408;2023-02-12T03:14:41;102994.44;;;9.45;66.09
21290;BME280;10804;48.988;2.408;2023-02-12T03:17:16;102994.44;;;9.45;65.71
21290;BME280;10804;48.988;2.408;2023-02-12T03:19:49;102986.63;;;9.45;65.58
21290;BME280;10804;48.988;2.408;2023-02-12T03:22:24;102991.84;;;9.45;65.83
21290;BME280;10804;48.988;2.408;2023-02-12T03:24:57;102988.38;;;9.46;66.26
21290;BME280;10804;48.988;2.408;2023-02-12T03:27:28;102991.00;;;9.44;65.82
21290;BME280;10804;48.988;2.408;2023-02-12T03:29:58;102984.03;;;9.43;65.83
21290;BME280;10804;48.988;2.408;2023-02-12T03:32:32;102977.06;;;9.44;65.70
21290;BME280;10804;48.988;2.408;2023-02-12T03:35:09;102982.28;;;9.44;65.81
21290;BME280;10804;48.988;2.408;2023-02-12T03:37:42;102971.00;;;9.45;66.13
21290;BME280;10804;48.988;2.408;2023-02-12T03:40:16;102971.00;;;9.43;65.73
21290;BME280;10804;48.988;2.408;2023-02-12T03:42:52;102974.47;;;9.44;66.30
21290;BME280;10804;48.988;2.408;2023-02-12T03:45:31;102969.25;;;9.44;65.94
21290;BME280;10804;48.988;2.408;2023-02-12T03:48:05;102971.88;;;9.44;65.97
21290;BME280;10804;48.988;2.408;2023-02-12T03:50:38;102971.00;;;9.43;65.87
21290;BME280;10804;48.988;2.408;2023-02-12T03:53:09;102972.72;;;9.43;65.62
21290;BME280;10804;48.988;2.408;2023-02-12T03:55:40;102966.63;;;9.42;65.89
21290;BME280;10804;48.988;2.408;2023-02-12T03:58:09;102977.03;;;9.42;65.96
21290;BME280;10804;48.988;2.408;2023-02-12T04:00:39;102975.28;;;9.41;66.14
21290;BME280;10804;48.988;2.408;2023-02-12T04:03:08;102967.47;;;9.41;65.85
21290;BME280;10804;48.988;2.408;2023-02-12T04:05:35;102980.50;;;9.41;65.79
21290;BME280;10804;48.988;2.408;2023-02-12T04:08:06;102968.38;;;9.42;65.88
21290;BME280;10804;48.988;2.408;2023-02-12T04:10:39;102968.34;;;9.40;65.96
21290;BME280;10804;48.988;2.408;2023-02-12T04:13:12;102957.94;;;9.40;66.32
21290;BME280;10804;48.988;2.408;2023-02-12T04:15:56;102972.69;;;9.40;65.97
21290;BME280;10804;48.988;2.408;2023-02-12T04:18:33;102979.66;;;9.41;65.65
21290;BME280;10804;48.988;2.408;2023-02-12T04:21:11;102970.06;;;9.38;65.69
21290;BME280;10804;48.988;2.408;2023-02-12T04:23:47;102973.56;;;9.40;65.75
21290;BME280;10804;48.988;2.408;2023-02-12T04:26:22;102967.50;;;9.40;66.20
21290;BME280;10804;48.988;2.408;2023-02-12T04:28:57;102974.41;;;9.39;65.82
21290;BME280;10804;48.988;2.408;2023-02-12T04:31:32;102971.81;;;9.39;66.18
21290;BME280;10804;48.988;2.408;2023-02-12T04:34:08;102971.81;;;9.39;66.37
21290;BME280;10804;48.988;2.408;2023-02-12T04:36:44;102973.56;;;9.39;65.79
21290;BME280;10804;48.988;2.408;2023-02-12T04:39:18;102968.34;;;9.39;66.26
21290;BME280;10804;48.988;2.408;2023-02-12T04:41:46;102970.06;;;9.38;66.29
21290;BME280;10804;48.988;2.408;2023-02-12T04:44:16;102976.16;;;9.39;66.00
21290;BME280;10804;48.988;2.408;2023-02-12T04:46:43;102982.22;;;9.39;66.28
21290;BME280;10804;48.988;2.408;2023-02-12T04:49:17;102976.09;;;9.36;65.91
21290;BME280;10804;48.988;2.408;2023-02-12T04:51:45;102972.63;;;9.37;65.92
21290;BME280;10804;48.988;2.408;2023-02-12T04:54:13;102972.63;;;9.37;66.00
21290;BME280;10804;48.988;2.408;2023-02-12T04:56:41;102967.41;;;9.37;66.05
21290;BME280;10804;48.988;2.408;2023-02-12T04:59:09;102970.03;;;9.37;65.79
21290;BME280;10804;48.988;2.408;2023-02-12T05:01:38;102972.63;;;9.37;66.17
21290;BME280;10804;48.988;2.408;2023-02-12T05:04:06;102974.34;;;9.35;65.72
21290;BME280;10804;48.988;2.408;2023-02-12T05:06:37;102972.63;;;9.37;65.94
21290;BME280;10804;48.988;2.408;2023-02-12T05:09:05;102967.41;;;9.37;66.36
21290;BME280;10804;48.988;2.408;2023-02-12T05:11:32;102972.63;;;9.37;65.98
21290;BME280;10804;48.988;2.408;2023-02-12T05:14:00;102976.09;;;9.36;66.14
21290;BME280;10804;48.988;2.408;2023-02-12T05:16:27;102970.88;;;9.36;65.93
21290;BME280;10804;48.988;2.408;2023-02-12T05:18:55;102969.13;;;9.35;65.68
21290;BME280;10804;48.988;2.408;2023-02-12T05:21:23;102963.94;;;9.35;66.08
21290;BME280;10804;48.988;2.408;2023-02-12T05:23:51;102965.66;;;9.33;66.26
21290;BME280;10804;48.988;2.408;2023-02-12T05:26:20;102969.13;;;9.35;66.02
21290;BME280;10804;48.988;2.408;2023-02-12T05:28:48;102966.53;;;9.35;66.11
21290;BME280;10804;48.988;2.408;2023-02-12T05:31:17;102971.75;;;9.35;65.83
21290;BME280;10804;48.988;2.408;2023-02-12T05:33:46;102966.50;;;9.33;66.37
21290;BME280;10804;48.988;2.408;2023-02-12T05:36:15;102965.66;;;9.34;65.96
21290;BME280;10804;48.988;2.408;2023-02-12T05:38:43;102968.25;;;9.34;66.31
21290;BME280;10804;48.988;2.408;2023-02-12T05:41:13;102971.72;;;9.33;66.06
21290;BME280;10804;48.988;2.408;2023-02-12T05:43:41;102959.53;;;9.32;65.65
21290;BME280;10804;48.988;2.408;2023-02-12T05:46:09;102967.38;;;9.34;66.00
21290;BME280;10804;48.988;2.408;2023-02-12T05:48:38;102967.38;;;9.34;65.97
21290;BME280;10804;48.988;2.408;2023-02-12T05:51:07;102956.97;;;9.34;65.89
21290;BME280;10804;48.988;2.408;2023-02-12T05:53:35;102953.47;;;9.33;66.22
21290;BME280;10804;48.988;2.408;2023-02-12T05:56:12;102963.03;;;9.33;65.83
21290;BME280;10804;48.988;2.408;2023-02-12T05:58:41;102965.66;;;9.33;66.25
21290;BME280;10804;48.988;2.408;2023-02-12T06:01:11;102966.50;;;9.33;66.04
21290;BME280;10804;48.988;2.408;2023-02-12T06:03:39;102956.09;;;9.32;65.90
21290;BME280;10804;48.988;2.408;2023-02-12T06:06:07;102964.75;;;9.32;65.76
21290;BME280;10804;48.988;2.408;2023-02-12T06:08:34;102962.16;;;9.32;66.40
21290;BME280;10804;48.988;2.408;2023-02-12T06:11:03;102956.09;;;9.32;66.38
21290;BME280;10804;48.988;2.408;2023-02-12T06:13:33;102950.81;;;9.27;65.89
21290;BME280;10804;48.988;2.408;2023-02-12T06:16:01;102954.31;;;9.31;66.22
21290;BME280;10804;48.988;2.408;2023-02-12T06:18:28;102951.69;;;9.31;66.25
21290;BME280;10804;48.988;2.408;2023-02-12T06:20:56;102956.91;;;9.31;66.49
21290;BME280;10804;48.988;2.408;2023-02-12T06:23:23;102956.91;;;9.31;66.01
21290;BME280;10804;48.988;2.408;2023-02-12T06:25:54;102955.19;;;9.31;65.88
21290;BME280;10804;48.988;2.408;2023-02-12T06:28:22;102963.84;;;9.30;66.31
21290;BME280;10804;48.988;2.408;2023-02-12T06:30:50;102956.03;;;9.30;66.14
21290;BME280;10804;48.988;2.408;2023-02-12T06:33:18;102958.69;;;9.32;66.28
21290;BME280;10804;48.988;2.408;2023-02-12T06:35:45;102957.75;;;9.30;66.15
21290;BME280;10804;48.988;2.408;2023-02-12T06:38:13;102951.69;;;9.29;66.08
21290;BME280;10804;48.988;2.408;2023-02-12T06:40:40;102962.13;;;9.31;66.15
21290;BME280;10804;48.988;2.408;2023-02-12T06:43:07;102955.16;;;9.30;66.01
21290;BME280;10804;48.988;2.408;2023-02-12T06:45:35;102953.41;;;9.29;65.80
21290;BME280;10804;48.988;2.408;2023-02-12T06:48:04;102956.03;;;9.30;66.13
21290;BME280;10804;48.988;2.408;2023-02-12T06:50:31;102961.25;;;9.30;65.98
21290;BME280;10804;48.988;2.408;2023-02-12T06:52:59;102955.16;;;9.30;66.07
21290;BME280;10804;48.988;2.408;2023-02-12T06:55:26;102958.63;;;9.29;66.47
21290;BME280;10804;48.988;2.408;2023-02-12T06:57:53;102961.22;;;9.29;66.05
21290;BME280;10804;48.988;2.408;2023-02-12T07:00:21;102971.66;;;9.30;66.47
21290;BME280;10804;48.988;2.408;2023-02-12T07:02:52;102965.56;;;9.30;66.49
21290;BME280;10804;48.988;2.408;2023-02-12T07:05:22;102968.19;;;9.30;66.21
21290;BME280;10804;48.988;2.408;2023-02-12T07:07:49;102974.25;;;9.29;66.18
21290;BME280;10804;48.988;2.408;2023-02-12T07:10:17;102976.00;;;9.30;66.27
21290;BME280;10804;48.988;2.408;2023-02-12T07:12:45;102972.50;;;9.28;66.49
21290;BME280;10804;48.988;2.408;2023-02-12T07:15:13;102974.25;;;9.29;66.28
21290;BME280;10804;48.988;2.408;2023-02-12T07:17:40;102983.81;;;9.28;66.11
21290;BME280;10804;48.988;2.408;2023-02-12T07:20:08;102984.66;;;9.29;65.88
21290;BME280;10804;48.988;2.408;2023-02-12T07:22:37;102982.94;;;9.29;66.50
21290;BME280;10804;48.988;2.408;2023-02-12T07:25:04;102992.47;;;9.27;65.97
21290;BME280;10804;48.988;2.408;2023-02-12T07:27:35;102995.06;;;9.29;66.39
21290;BME280;10804;48.988;2.408;2023-02-12T07:30:03;102995.03;;;9.26;65.86
21290;BME280;10804;48.988;2.408;2023-02-12T07:32:30;102993.28;;;9.26;65.78
21290;BME280;10804;48.988;2.408;2023-02-12T07:34:58;102991.63;;;9.28;65.93
21290;BME280;10804;48.988;2.408;2023-02-12T07:37:25;102988.13;;;9.28;66.47
21290;BME280;10804;48.988;2.408;2023-02-12T07:39:54;102995.06;;;9.29;66.52
21290;BME280;10804;48.988;2.408;2023-02-12T07:42:21;103000.28;;;9.29;65.85
21290;BME280;10804;48.988;2.408;2023-02-12T07:44:49;103001.13;;;9.28;66.17
21290;BME280;10804;48.988;2.408;2023-02-12T07:47:16;102995.94;;;9.28;65.90
21290;BME280;10804;48.988;2.408;2023-02-12T07:49:44;102987.25;;;9.27;65.92
21290;BME280;10804;48.988;2.408;2023-02-12T07:52:11;102998.53;;;9.28;66.08
21290;BME280;10804;48.988;2.408;2023-02-12T07:54:38;103002.88;;;9.29;65.93
21290;BME280;10804;48.988;2.408;2023-02-12T07:57:07;103005.50;;;9.29;66.32
21290;BME280;10804;48.988;2.408;2023-02-12T07:59:34;103004.63;;;9.28;66.30
21290;BME280;10804;48.988;2.408;2023-02-12T08:02:04;102996.81;;;9.30;65.92
21290;BME280;10804;48.988;2.408;2023-02-12T08:04:31;102996.81;;;9.30;66.52
21290;BME280;10804;48.988;2.408;2023-02-12T08:06:58;103005.50;;;9.29;66.00
21290;BME280;10804;48.988;2.408;2023-02-12T08:09:28;102999.44;;;9.28;66.13
21290;BME280;10804;48.988;2.408;2023-02-12T08:11:56;103010.69;;;9.29;66.20
21290;BME280;10804;48.988;2.408;2023-02-12T08:14:26;103000.28;;;9.29;66.32
21290;BME280;10804;48.988;2.408;2023-02-12T08:16:53;103000.28;;;9.29;66.49
21290;BME280;10804;48.988;2.408;2023-02-12T08:19:21;102999.44;;;9.28;66.19
21290;BME280;10804;48.988;2.408;2023-02-12T08:21:49;103002.03;;;9.30;65.92
21290;BME280;10804;48.988;2.408;2023-02-12T08:24:16;102997.69;;;9.29;65.86
21290;BME280;10804;48.988;2.408;2023-02-12T08:26:44;103002.03;;;9.28;66.29
21290;BME280;10804;48.988;2.408;2023-02-12T08:29:13;103002.00;;;9.27;65.86
21290;BME280;10804;48.988;2.408;2023-02-12T08:31:43;103002.03;;;9.30;65.84
21290;BME280;10804;48.988;2.408;2023-02-12T08:34:16;103007.25;;;9.30;66.16
21290;BME280;10804;48.988;2.408;2023-02-12T08:36:45;103005.50;;;9.29;66.31
21290;BME280;10804;48.988;2.408;2023-02-12T08:39:13;103011.59;;;9.29;66.43
21290;BME280;10804;48.988;2.408;2023-02-12T08:41:41;103008.97;;;9.31;66.26
21290;BME280;10804;48.988;2.408;2023-02-12T08:44:09;103015.97;;;9.32;66.20
21290;BME280;10804;48.988;2.408;2023-02-12T08:46:38;103012.44;;;9.28;66.08
21290;BME280;10804;48.988;2.408;2023-02-12T08:49:11;103024.59;;;9.31;66.47
21290;BME280;10804;48.988;2.408;2023-02-12T08:51:40;103022.94;;;9.33;66.46
21290;BME280;10804;48.988;2.408;2023-02-12T08:54:10;103020.31;;;9.33;66.35
21290;BME280;10804;48.988;2.408;2023-02-12T08:56:38;103028.13;;;9.33;66.20
21290;BME280;10804;48.988;2.408;2023-02-12T08:59:06;103017.72;;;9.33;66.50
21290;BME280;10804;48.988;2.408;2023-02-12T09:01:35;103026.44;;;9.35;65.88
21290;BME280;10804;48.988;2.408;2023-02-12T09:04:05;103020.31;;;9.34;66.34
21290;BME280;10804;48.988;2.408;2023-02-12T09:06:34;103022.09;;;9.35;66.00
21290;BME280;10804;48.988;2.408;2023-02-12T09:09:02;103017.75;;;9.36;66.12
21290;BME280;10804;48.988;2.408;2023-02-12T09:11:29;103012.53;;;9.36;65.99
21290;BME280;10804;48.988;2.408;2023-02-12T09:13:58;103012.53;;;9.36;65.89
21290;BME280;10804;48.988;2.408;2023-02-12T09:16:26;103022.09;;;9.37;65.82
21290;BME280;10804;48.988;2.408;2023-02-12T09:18:54;103016.91;;;9.37;66.33
21290;BME280;10804;48.988;2.408;2023-02-12T09:21:22;103017.81;;;9.39;66.24
21290;BME280;10804;48.988;2.408;2023-02-12T09:23:51;103023.88;;;9.39;66.05
21290;BME280;10804;48.988;2.408;2023-02-12T09:26:20;103024.78;;;9.40;65.89
21290;BME280;10804;48.988;2.408;2023-02-12T09:28:48;103026.53;;;9.41;65.60
21290;BME280;10804;48.988;2.408;2023-02-12T09:31:18;103024.78;;;9.41;65.71
21290;BME280;10804;48.988;2.408;2023-02-12T09:33:48;103033.47;;;9.42;66.10
21290;BME280;10804;48.988;2.408;2023-02-12T09:36:16;103029.13;;;9.42;66.43
21290;BME280;10804;48.988;2.408;2023-02-12T09:38:43;103021.34;;;9.44;65.88
21290;BME280;10804;48.988;2.408;2023-02-12T09:44:18;103026.59;;;9.45;65.86
21290;BME280;10804;48.988;2.408;2023-02-12T09:46:51;103023.13;;;9.46;66.32
21290;BME280;10804;48.988;2.408;2023-02-12T09:49:31;103017.06;;;9.47;66.01
21290;BME280;10804;48.988;2.408;2023-02-12T09:52:05;103017.97;;;9.48;66.04
21290;BME280;10804;48.988;2.408;2023-02-12T09:54:38;103009.25;;;9.47;65.91
21290;BME280;10804;48.988;2.408;2023-02-12T09:57:14;103012.75;;;9.49;66.02
21290;BME280;10804;48.988;2.408;2023-02-12T09:59:47;103004.97;;;9.51;65.84
21290;BME280;10804;48.988;2.408;2023-02-12T10:02:19;103014.53;;;9.52;66.17
21290;BME280;10804;48.988;2.408;2023-02-12T10:04:47;103010.22;;;9.52;65.68
21290;BME280;10804;48.988;2.408;2023-02-12T10:07:28;103004.16;;;9.53;66.04
21290;BME280;10804;48.988;2.408;2023-02-12T10:10:13;103012.00;;;9.55;66.24
21290;BME280;10804;48.988;2.408;2023-02-12T10:12:48;103010.28;;;9.57;65.76
21290;BME280;10804;48.988;2.408;2023-02-12T10:15:29;103007.66;;;9.57;66.11
21290;BME280;10804;48.988;2.408;2023-02-12T10:18:07;103009.38;;;9.56;65.78
21290;BME280;10804;48.988;2.408;2023-02-12T10:20:54;103004.25;;;9.59;65.63
21290;BME280;10804;48.988;2.408;2023-02-12T10:23:55;103006.84;;;9.61;66.17
21290;BME280;10804;48.988;2.408;2023-02-12T10:26:28;103005.13;;;9.61;65.72
21290;BME280;10804;48.988;2.408;2023-02-12T10:28:58;103007.78;;;9.63;65.89
21290;BME280;10804;48.988;2.408;2023-02-12T10:31:31;102994.75;;;9.63;65.78
21290;BME280;10804;48.988;2.408;2023-02-12T10:34:07;102998.25;;;9.65;66.16
21290;BME280;10804;48.988;2.408;2023-02-12T10:36:42;103002.59;;;9.66;65.81
21290;BME280;10804;48.988;2.408;2023-02-12T10:39:14;102992.16;;;9.66;65.54
21290;BME280;10804;48.988;2.408;2023-02-12T10:41:49;103000.88;;;9.68;65.88
21290;BME280;10804;48.988;2.408;2023-02-12T10:44:19;102995.69;;;9.69;65.92
21290;BME280;10804;48.988;2.408;2023-02-12T10:46:47;102993.13;;;9.71;65.72
21290;BME280;10804;48.988;2.408;2023-02-12T10:49:16;102992.25;;;9.72;65.66
21290;BME280;10804;48.988;2.408;2023-02-12T10:51:58;102990.53;;;9.74;65.51
21290;BME280;10804;48.988;2.408;2023-02-12T10:54:34;102991.44;;;9.76;65.50
21290;BME280;10804;48.988;2.408;2023-02-12T10:57:12;102989.72;;;9.76;65.85
21290;BME280;10804;48.988;2.408;2023-02-12T10:59:41;102987.13;;;9.78;65.96
21290;BME280;10804;48.988;2.408;2023-02-12T11:02:22;102990.63;;;9.80;65.73
21290;BME280;10804;48.988;2.408;2023-02-12T11:04:51;102982.78;;;9.78;65.66
21290;BME280;10804;48.988;2.408;2023-02-12T11:07:20;102992.38;;;9.81;65.62
21290;BME280;10804;48.988;2.408;2023-02-12T11:09:48;102982.00;;;9.82;65.74
21290;BME280;10804;48.988;2.408;2023-02-12T11:12:19;102978.56;;;9.85;65.53
21290;BME280;10804;48.988;2.408;2023-02-12T11:14:51;102965.53;;;9.86;65.52
21290;BME280;10804;48.988;2.408;2023-02-12T11:17:25;102975.09;;;9.86;65.75
21290;BME280;10804;48.988;2.408;2023-02-12T11:20:03;102961.19;;;9.87;65.60
21290;BME280;10804;48.988;2.408;2023-02-12T11:22:35;102967.25;;;9.87;65.84
21290;BME280;10804;48.988;2.408;2023-02-12T11:25:13;102969.94;;;9.92;65.40
21290;BME280;10804;48.988;2.408;2023-02-12T11:27:40;102963.88;;;9.93;65.85
21290;BME280;10804;48.988;2.408;2023-02-12T11:30:15;102963.03;;;9.95;65.77
21290;BME280;10804;48.988;2.408;2023-02-12T11:32:45;102968.25;;;9.97;65.56
21290;BME280;10804;48.988;2.408;2023-02-12T11:35:16;102957.84;;;9.97;65.44
21290;BME280;10804;48.988;2.408;2023-02-12T11:37:50;102964.84;;;10.01;65.75
21290;BME280;10804;48.988;2.408;2023-02-12T11:40:21;102961.41;;;10.03;65.47
21290;BME280;10804;48.988;2.408;2023-02-12T11:42:51;102953.63;;;10.05;65.77
21290;BME280;10804;48.988;2.408;2023-02-12T11:45:21;102944.94;;;10.06;65.85
21290;BME280;10804;48.988;2.408;2023-02-12T11:47:53;102944.06;;;10.07;65.76
21290;BME280;10804;48.988;2.408;2023-02-12T11:50:24;102942.38;;;10.09;65.49
21290;BME280;10804;48.988;2.408;2023-02-12T11:52:56;102938.91;;;10.10;65.54
21290;BME280;10804;48.988;2.408;2023-02-12T11:55:27;102932.84;;;10.11;65.60
21290;BME280;10804;48.988;2.408;2023-02-12T11:58:02;102936.34;;;10.13;65.60
21290;BME280;10804;48.988;2.408;2023-02-12T12:00:32;102925.94;;;10.14;65.96
21290;BME280;10804;48.988;2.408;2023-02-12T12:03:10;102931.16;;;10.17;65.77
21290;BME280;10804;48.988;2.408;2023-02-12T12:05:43;102924.22;;;10.16;65.89
21290;BME280;10804;48.988;2.408;2023-02-12T12:08:18;102924.25;;;10.18;65.57
21290;BME280;10804;48.988;2.408;2023-02-12T12:10:50;102919.91;;;10.20;65.70
21290;BME280;10804;48.988;2.408;2023-02-12T12:13:23;102912.97;;;10.22;65.80
21290;BME280;10804;48.988;2.408;2023-02-12T12:16:02;102922.56;;;10.24;65.75
21290;BME280;10804;48.988;2.408;2023-02-12T12:18:55;102915.63;;;10.25;65.91
21290;BME280;10804;48.988;2.408;2023-02-12T12:21:46;102918.22;;;10.26;65.81
21290;BME280;10804;48.988;2.408;2023-02-12T12:24:16;102918.25;;;10.28;65.60
21290;BME280;10804;48.988;2.408;2023-02-12T12:26:49;102914.78;;;10.29;65.82
21290;BME280;10804;48.988;2.408;2023-02-12T12:29:31;102912.19;;;10.30;65.72
21290;BME280;10804;48.988;2.408;2023-02-12T12:32:02;102904.34;;;10.29;65.62
21290;BME280;10804;48.988;2.408;2023-02-12T12:34:32;102897.47;;;10.34;65.70
21290;BME280;10804;48.988;2.408;2023-02-12T12:37:13;102898.34;;;10.36;65.68
21290;BME280;10804;48.988;2.408;2023-02-12T12:39:52;102894.88;;;10.37;65.37
21290;BME280;10804;48.988;2.408;2023-02-12T12:45:41;102883.56;;;10.38;65.44
21290;BME280;10804;48.988;2.408;2023-02-12T12:48:24;102884.47;;;10.41;65.46
21290;BME280;10804;48.988;2.408;2023-02-12T12:51:09;102876.66;;;10.43;65.41
21290;BME280;10804;48.988;2.408;2023-02-12T12:53:49;102874.94;;;10.45;65.43
21290;BME280;10804;48.988;2.408;2023-02-12T12:56:36;102868.03;;;10.47;65.61
21290;BME280;10804;48.988;2.408;2023-02-12T12:59:34;102881.94;;;10.47;65.42
21290;BME280;10804;48.988;2.408;2023-02-12T13:02:26;102881.94;;;10.49;65.26
21290;BME280;10804;48.988;2.408;2023-02-12T13:05:31;102869.78;;;10.51;65.36
21290;BME280;10804;48.988;2.408;2023-02-12T13:08:11;102868.94;;;10.53;65.35
21290;BME280;10804;48.988;2.408;2023-02-12T13:10:45;102868.94;;;10.53;65.30
21290;BME280;10804;48.988;2.408;2023-02-12T13:13:23;102858.53;;;10.55;65.40
21290;BME280;10804;48.988;2.408;2023-02-12T13:16:01;102861.16;;;10.58;65.34
21290;BME280;10804;48.988;2.408;2023-02-12T13:18:37;102863.78;;;10.59;65.31
21290;BME280;10804;48.988;2.408;2023-02-12T13:21:13;102869.88;;;10.61;65.22
21290;BME280;10804;48.988;2.408;2023-02-12T13:23:48;102859.47;;;10.63;65.09
21290;BME280;10804;48.988;2.408;2023-02-12T13:26:22;102859.44;;;10.64;65.29
21290;BME280;10804;48.988;2.408;2023-02-12T13:28:58;102855.13;;;10.68;65.23